createdAt,value
2023-05-10T00:01:49.056Z,38.09
2023-05-10T00:03:50.725Z,38.20
2023-05-10T00:05:52.370Z,38.02
2023-05-10T00:07:53.940Z,38.00
2023-05-10T00:09:55.538Z,38.00
2023-05-10T00:11:59.265Z,38.23
2023-05-10T00:14:00.782Z,37.93
2023-05-10T00:16:02.315Z,38.28
2023-05-10T00:18:04.318Z,37.96
2023-05-10T00:20:06.336Z,37.92
2023-05-10T00:22:07.812Z,37.82
2023-05-10T00:24:09.370Z,38.04
2023-05-10T00:26:10.849Z,37.99
2023-05-10T00:28:12.357Z,37.95
2023-05-10T00:30:14.688Z,38.03
2023-05-10T00:32:16.468Z,37.83
2023-05-10T00:34:18.116Z,37.98
2023-05-10T00:36:19.640Z,38.15
2023-05-10T00:38:21.321Z,38.22
2023-05-10T00:40:23.048Z,38.12
2023-05-10T00:42:24.547Z,38.56
2023-05-10T00:44:26.051Z,38.12
2023-05-10T00:46:27.987Z,38.03
2023-05-10T00:48:30.170Z,38.24
2023-05-10T00:50:32.557Z,38.47
2023-05-10T00:52:34.216Z,38.24
2023-05-10T00:54:35.833Z,38.45
2023-05-10T00:56:37.521Z,38.12
2023-05-10T00:58:39.248Z,38.20
2023-05-10T01:00:42.376Z,38.29
2023-05-10T01:02:43.977Z,38.11
2023-05-10T01:04:45.531Z,38.14
2023-05-10T01:06:47.486Z,38.14
2023-05-10T01:08:48.960Z,38.43
2023-05-10T01:10:50.433Z,38.24
2023-05-10T01:12:52.081Z,38.20
2023-05-10T01:14:54.602Z,38.20
2023-05-10T01:16:56.346Z,38.42
2023-05-10T01:18:57.892Z,38.19
2023-05-10T01:21:11.888Z,38.41
2023-05-10T01:23:25.829Z,38.40
2023-05-10T01:25:27.259Z,38.43
2023-05-10T01:27:48.668Z,38.38
2023-05-10T01:30:14.693Z,38.43
2023-05-10T01:32:23.290Z,38.31
2023-05-10T01:34:26.529Z,38.29
2023-05-10T01:36:31.775Z,38.14
2023-05-10T01:38:43.537Z,38.35
2023-05-10T01:40:50.820Z,38.47
2023-05-10T01:42:59.884Z,38.07
2023-05-10T01:45:07.695Z,38.19
2023-05-10T01:47:13.326Z,38.30
2023-05-10T01:49:35.051Z,38.18
2023-05-10T01:51:40.004Z,38.08
2023-05-10T01:53:43.457Z,38.22
2023-05-10T01:55:48.751Z,38.37
2023-05-10T01:57:53.559Z,38.18
2023-05-10T01:59:55.941Z,38.31
2023-05-10T02:02:00.000Z,38.31
2023-05-10T02:04:02.909Z,38.24
2023-05-10T02:06:04.572Z,38.18
2023-05-10T02:08:07.798Z,38.32
2023-05-10T02:10:10.248Z,38.07
2023-05-10T02:12:14.069Z,38.00
2023-05-10T02:14:16.741Z,38.03
2023-05-10T02:16:19.830Z,38.16
2023-05-10T02:18:23.194Z,38.11
2023-05-10T02:20:25.745Z,37.98
2023-05-10T02:22:28.265Z,37.91
2023-05-10T02:24:30.649Z,38.19
2023-05-10T02:26:34.103Z,38.13
2023-05-10T02:28:36.623Z,38.03
2023-05-10T02:30:38.881Z,38.03
2023-05-10T02:32:40.935Z,37.80
2023-05-10T02:34:43.001Z,37.88
2023-05-10T02:36:44.650Z,38.14
2023-05-10T02:38:47.036Z,37.97
2023-05-10T02:40:48.823Z,38.04
2023-05-10T02:42:53.221Z,38.06
2023-05-10T02:44:58.005Z,37.61
2023-05-10T02:46:59.812Z,38.11
2023-05-10T02:49:01.883Z,37.78
2023-05-10T02:51:05.978Z,37.58
2023-05-10T02:53:20.310Z,38.00
2023-05-10T02:55:23.500Z,37.90
2023-05-10T02:57:29.634Z,37.71
2023-05-10T02:59:31.901Z,37.72
2023-05-10T03:01:33.559Z,37.81
2023-05-10T03:03:35.026Z,37.80
2023-05-10T03:05:36.451Z,37.84
2023-05-10T03:07:38.375Z,37.59
2023-05-10T03:09:40.504Z,38.03
2023-05-10T03:11:57.739Z,37.78
2023-05-10T03:14:04.982Z,37.56
2023-05-10T03:16:13.197Z,37.69
2023-05-10T03:18:17.966Z,37.53
2023-05-10T03:20:25.854Z,37.79
2023-05-10T03:22:32.614Z,37.42
2023-05-10T03:24:35.406Z,37.53
2023-05-10T03:26:38.005Z,37.65
2023-05-10T03:28:40.561Z,37.78
2023-05-10T03:30:42.672Z,37.64
2023-05-10T03:32:44.276Z,37.73
2023-05-10T03:34:45.729Z,37.38
2023-05-10T03:36:47.224Z,37.38
2023-05-10T03:38:48.894Z,37.67
2023-05-10T03:40:50.276Z,37.38
2023-05-10T03:42:51.684Z,37.68
2023-05-10T03:44:53.364Z,37.53
2023-05-10T03:46:54.874Z,37.51
2023-05-10T03:48:56.280Z,37.52
2023-05-10T03:50:57.803Z,37.50
2023-05-10T03:52:59.352Z,37.70
2023-05-10T03:55:00.968Z,37.41
2023-05-10T03:57:03.816Z,37.38
2023-05-10T03:59:08.428Z,37.70
2023-05-10T04:01:09.931Z,37.69
2023-05-10T04:03:12.007Z,37.45
2023-05-10T04:05:13.647Z,37.75
2023-05-10T04:07:15.371Z,37.38
2023-05-10T04:09:18.140Z,37.62
2023-05-10T04:11:19.650Z,37.48
2023-05-10T04:13:21.685Z,37.51
2023-05-10T04:15:23.359Z,37.45
2023-05-10T04:17:24.860Z,37.63
2023-05-10T04:19:29.834Z,37.39
2023-05-10T04:21:31.491Z,37.32
2023-05-10T04:23:33.002Z,37.25
2023-05-10T04:25:35.368Z,37.74
2023-05-10T04:27:36.764Z,37.44
2023-05-10T04:29:39.304Z,37.56
2023-05-10T04:31:40.933Z,37.45
2023-05-10T04:33:42.583Z,37.68
2023-05-10T04:35:45.637Z,37.65
2023-05-10T04:37:47.191Z,37.68
2023-05-10T04:39:48.771Z,37.72
2023-05-10T04:41:50.176Z,37.40
2023-05-10T04:43:51.600Z,37.36
2023-05-10T04:45:53.334Z,37.55
2023-05-10T04:47:54.982Z,37.42
2023-05-10T04:49:56.578Z,37.58
2023-05-10T04:51:58.052Z,37.22
2023-05-10T04:54:06.078Z,37.63
2023-05-10T04:56:08.458Z,37.49
2023-05-10T04:58:09.904Z,37.45
2023-05-10T05:00:11.643Z,37.28
2023-05-10T05:02:13.034Z,37.43
2023-05-10T05:04:15.752Z,37.34
2023-05-10T05:06:17.396Z,37.32
2023-05-10T05:08:18.892Z,37.56
2023-05-10T05:10:20.580Z,37.66
2023-05-10T05:12:22.042Z,37.43
2023-05-10T05:14:23.577Z,37.29
2023-05-10T05:16:25.564Z,37.48
2023-05-10T05:18:27.191Z,37.75
2023-05-10T05:20:28.800Z,37.64
2023-05-10T05:22:30.490Z,37.36
2023-05-10T05:24:35.788Z,37.69
2023-05-10T05:26:37.795Z,37.49
2023-05-10T05:28:39.378Z,37.57
2023-05-10T05:30:40.906Z,37.49
2023-05-10T05:32:42.348Z,37.65
2023-05-10T05:34:45.382Z,37.46
2023-05-10T05:36:47.003Z,37.44
2023-05-10T05:38:48.704Z,37.91
2023-05-10T05:40:50.339Z,37.73
2023-05-10T05:42:51.860Z,37.54
2023-05-10T05:44:53.325Z,37.50
2023-05-10T05:46:54.984Z,37.74
2023-05-10T05:48:56.617Z,37.62
2023-05-10T05:50:58.311Z,37.75
2023-05-10T05:52:59.702Z,37.81
2023-05-10T05:55:01.243Z,37.79
2023-05-10T05:57:02.686Z,37.57
2023-05-10T05:59:04.625Z,37.69
2023-05-10T06:01:06.140Z,37.44
2023-05-10T06:03:08.399Z,37.52
2023-05-10T06:05:09.988Z,37.51
2023-05-10T06:07:11.528Z,37.94
2023-05-10T06:09:12.972Z,37.46
2023-05-10T06:11:14.443Z,37.79
2023-05-10T06:13:16.562Z,37.54
2023-05-10T06:15:18.296Z,37.52
2023-05-10T06:17:20.200Z,37.77
2023-05-10T06:19:21.591Z,37.89
2023-05-10T06:21:23.414Z,37.58
2023-05-10T06:23:26.400Z,37.63
2023-05-10T06:25:27.937Z,37.82
2023-05-10T06:27:29.454Z,37.70
2023-05-10T06:29:30.937Z,37.67
2023-05-10T06:31:32.542Z,37.73
2023-05-10T06:33:34.482Z,37.80
2023-05-10T06:35:35.897Z,37.64
2023-05-10T06:37:37.439Z,37.54
2023-05-10T06:39:38.895Z,37.96
2023-05-10T06:41:40.268Z,37.67
2023-05-10T06:43:42.617Z,37.94
2023-05-10T06:45:44.331Z,37.95
2023-05-10T06:47:45.824Z,37.74
2023-05-10T06:49:47.363Z,37.81
2023-05-10T06:51:49.537Z,37.59
2023-05-10T06:53:51.169Z,37.77
2023-05-10T06:55:53.112Z,37.98
2023-05-10T06:57:54.889Z,38.10
2023-05-10T06:59:57.255Z,37.96
2023-05-10T07:01:58.799Z,37.70
2023-05-10T07:04:00.256Z,37.87
2023-05-10T07:06:04.137Z,37.92
2023-05-10T07:08:05.714Z,37.94
2023-05-10T07:10:08.129Z,37.89
2023-05-10T07:12:11.132Z,37.88
2023-05-10T07:14:13.784Z,37.87
2023-05-10T07:16:15.330Z,37.82
2023-05-10T07:18:16.896Z,37.92
2023-05-10T07:20:18.350Z,37.90
2023-05-10T07:22:19.798Z,37.82
2023-05-10T07:24:21.236Z,37.93
2023-05-10T07:26:23.177Z,37.86
2023-05-10T07:28:25.260Z,37.97
2023-05-10T07:30:26.932Z,38.30
2023-05-10T07:32:28.458Z,38.13
2023-05-10T07:34:31.133Z,38.07
2023-05-10T07:36:33.370Z,38.00
2023-05-10T07:38:34.987Z,37.92
2023-05-10T07:40:36.378Z,38.00
2023-05-10T07:42:37.925Z,38.03
2023-05-10T07:44:39.493Z,38.04
2023-05-10T07:46:41.361Z,38.22
2023-05-10T07:48:42.989Z,38.06
2023-05-10T07:50:44.449Z,38.05
2023-05-10T07:52:45.902Z,37.98
2023-05-10T07:54:47.408Z,38.04
2023-05-10T07:56:49.155Z,38.13
2023-05-10T07:58:50.649Z,38.24
2023-05-10T08:00:52.194Z,38.11
2023-05-10T08:02:54.038Z,37.99
2023-05-10T08:04:56.750Z,38.12
2023-05-10T08:06:58.345Z,38.10
2023-05-10T08:08:59.820Z,37.92
2023-05-10T08:11:01.607Z,38.03
2023-05-10T08:13:03.014Z,38.24
2023-05-10T08:15:05.001Z,37.92
2023-05-10T08:17:06.776Z,37.62
2023-05-10T08:19:08.287Z,37.60
2023-05-10T08:21:09.998Z,37.30
2023-05-10T08:23:13.104Z,37.04
2023-05-10T08:25:14.603Z,37.01
2023-05-10T08:27:16.041Z,36.89
2023-05-10T08:29:17.963Z,36.68
2023-05-10T08:31:19.686Z,36.58
2023-05-10T08:33:21.405Z,36.59
2023-05-10T08:35:22.892Z,36.42
2023-05-10T08:37:24.578Z,36.31
2023-05-10T08:39:30.509Z,36.50
2023-05-10T08:41:34.219Z,36.18
2023-05-10T08:43:36.766Z,36.21
2023-05-10T08:45:39.067Z,36.19
2023-05-10T08:47:40.676Z,36.42
2023-05-10T08:49:42.579Z,36.48
2023-05-10T08:51:48.350Z,36.16
2023-05-10T08:53:49.790Z,36.44
2023-05-10T08:55:51.576Z,36.75
2023-05-10T08:57:53.077Z,36.93
2023-05-10T08:59:54.570Z,37.02
2023-05-10T09:01:58.311Z,37.17
2023-05-10T09:04:00.016Z,37.06
2023-05-10T09:06:01.662Z,37.48
2023-05-10T09:08:03.281Z,37.57
2023-05-10T09:10:05.482Z,37.71
2023-05-10T09:12:07.813Z,37.69
2023-05-10T09:14:10.558Z,37.94
2023-05-10T09:16:21.221Z,37.85
2023-05-10T09:18:24.640Z,38.19
2023-05-10T09:20:27.520Z,37.89
2023-05-10T09:22:28.974Z,38.19
2023-05-10T09:24:31.004Z,38.28
2023-05-10T09:26:32.913Z,38.29
2023-05-10T09:28:35.155Z,38.24
2023-05-10T09:30:36.993Z,38.22
2023-05-10T09:32:42.352Z,38.28
2023-05-10T09:34:43.957Z,38.44
2023-05-10T09:36:52.713Z,38.62
2023-05-10T09:38:54.446Z,38.48
2023-05-10T09:40:56.265Z,38.54
2023-05-10T09:43:08.356Z,38.40
2023-05-10T09:45:10.055Z,38.24
2023-05-10T09:47:11.858Z,38.12
2023-05-10T09:49:15.395Z,38.00
2023-05-10T09:51:20.479Z,37.99
2023-05-10T09:53:21.937Z,37.74
2023-05-10T09:55:24.130Z,37.72
2023-05-10T09:57:26.902Z,37.46
2023-05-10T09:59:29.056Z,37.42
2023-05-10T10:01:31.413Z,37.49
2023-05-10T10:03:32.920Z,37.58
2023-05-10T10:05:35.266Z,37.75
2023-05-10T10:07:36.903Z,37.65
2023-05-10T10:09:39.330Z,38.02
2023-05-10T10:11:42.285Z,37.93
2023-05-10T10:13:44.242Z,38.01
2023-05-10T10:15:47.026Z,37.80
2023-05-10T10:17:49.582Z,38.14
2023-05-10T10:19:51.210Z,37.72
2023-05-10T10:21:52.843Z,37.84
2023-05-10T10:23:55.265Z,38.04
2023-05-10T10:25:56.951Z,37.70
2023-05-10T10:28:09.395Z,37.66
2023-05-10T10:30:18.835Z,37.68
2023-05-10T10:32:31.096Z,37.28
2023-05-10T10:34:33.017Z,36.95
2023-05-10T10:36:41.085Z,37.05
2023-05-10T10:38:48.659Z,37.05
2023-05-10T10:41:02.424Z,37.22
2023-05-10T10:43:24.445Z,36.94
2023-05-10T10:45:28.965Z,36.90
2023-05-10T10:47:36.631Z,37.42
2023-05-10T10:49:41.689Z,36.93
2023-05-10T10:52:03.111Z,37.04
2023-05-10T10:54:11.265Z,37.29
2023-05-10T10:56:14.626Z,37.23
2023-05-10T10:58:32.748Z,37.01
2023-05-10T11:00:36.260Z,37.28
2023-05-10T11:02:46.931Z,37.35
2023-05-10T11:04:48.629Z,37.23
2023-05-10T11:06:50.647Z,36.92
2023-05-10T11:08:53.647Z,36.62
2023-05-10T11:11:02.138Z,36.91
2023-05-10T11:13:05.393Z,36.29
2023-05-10T11:15:10.048Z,36.70
2023-05-10T11:17:24.740Z,36.24
2023-05-10T11:19:28.994Z,36.68
2023-05-10T11:21:33.856Z,36.77
2023-05-10T11:23:41.417Z,36.60
2023-05-10T11:25:44.163Z,37.06
2023-05-10T11:27:48.679Z,36.81
2023-05-10T11:29:53.256Z,36.92
2023-05-10T11:31:57.555Z,37.03
2023-05-10T11:34:00.440Z,37.20
2023-05-10T11:36:01.854Z,37.12
2023-05-10T11:38:06.303Z,36.99
2023-05-10T11:40:10.596Z,37.05
2023-05-10T11:42:13.112Z,37.08
2023-05-10T11:44:14.552Z,36.91
2023-05-10T11:46:17.116Z,37.24
2023-05-10T11:48:23.236Z,36.98
2023-05-10T11:50:24.893Z,37.03
2023-05-10T11:52:26.358Z,37.05
2023-05-10T11:54:27.807Z,37.07
2023-05-10T11:56:29.276Z,37.21
2023-05-10T11:58:31.757Z,36.94
2023-05-10T12:00:33.437Z,37.51
2023-05-10T12:02:35.070Z,37.56
2023-05-10T12:04:36.886Z,37.00
2023-05-10T12:06:41.419Z,37.18
2023-05-10T12:08:45.766Z,36.73
2023-05-10T12:10:47.209Z,36.59
2023-05-10T12:12:49.154Z,36.56
2023-05-10T12:14:51.672Z,36.28
2023-05-10T12:16:53.416Z,36.28
2023-05-10T12:18:56.875Z,36.26
2023-05-10T12:21:03.968Z,36.01
2023-05-10T12:23:06.385Z,35.93
2023-05-10T12:25:09.298Z,36.06
2023-05-10T12:27:10.781Z,35.59
2023-05-10T12:29:21.371Z,35.12
2023-05-10T12:31:23.078Z,35.65
2023-05-10T12:33:24.611Z,35.47
2023-05-10T12:35:26.091Z,35.29
2023-05-10T12:37:29.137Z,35.12
2023-05-10T12:39:40.265Z,35.33
2023-05-10T12:41:43.597Z,35.27
2023-05-10T12:43:49.032Z,34.92
2023-05-10T12:45:50.794Z,34.85
2023-05-10T12:47:52.327Z,34.82
2023-05-10T12:49:53.811Z,34.88
2023-05-10T12:51:55.349Z,34.83
2023-05-10T12:53:56.794Z,35.12
2023-05-10T12:55:58.538Z,34.79
2023-05-10T12:58:00.038Z,35.04
2023-05-10T13:00:01.730Z,35.38
2023-05-10T13:02:03.220Z,35.62
2023-05-10T13:04:04.721Z,35.39
2023-05-10T13:06:07.248Z,35.40
2023-05-10T13:08:08.672Z,35.85
2023-05-10T13:10:10.556Z,35.69
2023-05-10T13:12:12.335Z,35.88
2023-05-10T13:14:14.293Z,36.34
2023-05-10T13:16:16.081Z,36.48
2023-05-10T13:18:17.602Z,36.63
2023-05-10T13:20:19.292Z,36.72
2023-05-10T13:22:32.491Z,37.13
2023-05-10T13:24:38.193Z,37.37
2023-05-10T13:26:39.609Z,37.19
2023-05-10T13:28:41.559Z,37.57
2023-05-10T13:30:43.027Z,38.21
2023-05-10T13:32:44.493Z,38.14
2023-05-10T13:34:46.022Z,38.06
2023-05-10T13:36:47.797Z,38.35
2023-05-10T13:38:49.374Z,38.72
2023-05-10T13:40:53.532Z,39.05
2023-05-10T13:42:55.045Z,38.83
2023-05-10T13:44:56.706Z,39.08
2023-05-10T13:46:58.283Z,39.20
2023-05-10T13:48:59.760Z,38.91
2023-05-10T13:51:01.201Z,39.21
2023-05-10T13:53:02.847Z,39.20
2023-05-10T13:55:05.523Z,39.18
2023-05-10T13:57:07.590Z,39.50
2023-05-10T13:59:09.151Z,39.37
2023-05-10T14:01:10.616Z,39.63
2023-05-10T14:03:12.622Z,39.81
2023-05-10T14:05:14.471Z,40.12
2023-05-10T14:07:15.870Z,40.09
2023-05-10T14:09:17.690Z,39.93
2023-05-10T14:11:19.137Z,40.17
2023-05-10T14:13:20.523Z,40.26
2023-05-10T14:15:22.105Z,39.99
2023-05-10T14:17:23.604Z,40.31
2023-05-10T14:19:25.396Z,40.32
2023-05-10T14:21:26.983Z,40.10
2023-05-10T14:23:29.646Z,40.19
2023-05-10T14:25:31.604Z,40.06
2023-05-10T14:27:33.374Z,39.46
2023-05-10T14:29:34.833Z,39.47
2023-05-10T14:31:36.337Z,39.41
2023-05-10T14:33:37.771Z,39.62
2023-05-10T14:35:39.273Z,39.26
2023-05-10T14:37:40.797Z,39.31
2023-05-10T14:39:43.357Z,39.15
2023-05-10T14:41:45.504Z,39.28
2023-05-10T14:43:47.131Z,39.03
2023-05-10T14:45:48.866Z,38.73
2023-05-10T14:47:51.052Z,38.61
2023-05-10T14:49:52.534Z,38.51
2023-05-10T14:51:54.075Z,38.37
2023-05-10T14:53:55.539Z,38.52
2023-05-10T14:55:57.025Z,38.65
2023-05-10T14:57:59.200Z,38.63
2023-05-10T15:00:01.251Z,38.65
2023-05-10T15:02:04.081Z,38.29
2023-05-10T15:04:06.035Z,38.44
2023-05-10T15:06:08.768Z,38.38
2023-05-10T15:08:10.532Z,38.20
2023-05-10T15:10:12.347Z,37.95
2023-05-10T15:12:13.777Z,37.60
2023-05-10T15:14:15.336Z,37.44
2023-05-10T15:16:16.877Z,37.57
2023-05-10T15:18:18.462Z,37.49
2023-05-10T15:20:19.900Z,37.47
2023-05-10T15:22:22.174Z,37.15
2023-05-10T15:24:23.784Z,37.34
2023-05-10T15:26:27.150Z,37.52
2023-05-10T15:28:28.558Z,37.58
2023-05-10T15:30:30.062Z,37.56
2023-05-10T15:32:31.550Z,37.66
2023-05-10T15:34:34.906Z,37.42
2023-05-10T15:36:37.121Z,37.84
2023-05-10T15:38:38.505Z,37.84
2023-05-10T15:40:40.107Z,37.82
2023-05-10T15:42:41.878Z,38.08
2023-05-10T15:44:45.309Z,38.24
2023-05-10T15:46:46.989Z,38.01
2023-05-10T15:48:48.495Z,37.93
2023-05-10T15:50:49.909Z,37.62
2023-05-10T15:52:51.764Z,37.72
2023-05-10T15:54:53.382Z,38.13
2023-05-10T15:56:55.049Z,37.95
2023-05-10T15:58:56.597Z,38.02
2023-05-10T16:00:58.067Z,37.38
2023-05-10T16:02:59.793Z,37.73
2023-05-10T16:05:01.669Z,37.56
2023-05-10T16:07:03.349Z,37.22
2023-05-10T16:09:04.786Z,37.20
2023-05-10T16:11:07.304Z,37.46
2023-05-10T16:13:09.060Z,37.56
2023-05-10T16:15:10.797Z,37.50
2023-05-10T16:17:12.468Z,37.48
2023-05-10T16:19:13.948Z,37.42
2023-05-10T16:21:15.457Z,37.40
2023-05-10T16:23:16.904Z,37.29
2023-05-10T16:25:18.824Z,37.38
2023-05-10T16:27:20.572Z,37.57
2023-05-10T16:29:22.087Z,37.50
2023-05-10T16:31:23.620Z,37.59
2023-05-10T16:33:25.083Z,37.67
2023-05-10T16:35:26.657Z,37.46
2023-05-10T16:37:28.219Z,37.76
2023-05-10T16:39:29.701Z,37.71
2023-05-10T16:41:34.705Z,37.89
2023-05-10T16:43:36.783Z,37.26
2023-05-10T16:45:38.236Z,37.60
2023-05-10T16:47:40.372Z,37.68
2023-05-10T16:49:42.212Z,37.61
2023-05-10T16:51:43.707Z,37.01
2023-05-10T16:53:45.119Z,36.78
2023-05-10T16:55:46.654Z,36.53
2023-05-10T16:57:48.535Z,36.27
2023-05-10T16:59:50.121Z,36.45
2023-05-10T17:01:53.216Z,36.46
2023-05-10T17:03:54.968Z,36.60
2023-05-10T17:05:56.441Z,36.27
2023-05-10T17:07:58.131Z,36.60
2023-05-10T17:09:59.627Z,36.71
2023-05-10T17:12:03.273Z,37.07
2023-05-10T17:14:04.666Z,36.79
2023-05-10T17:16:06.174Z,36.85
2023-05-10T17:18:08.144Z,37.21
2023-05-10T17:20:09.972Z,37.11
2023-05-10T17:22:12.488Z,36.84
2023-05-10T17:24:14.295Z,36.94
2023-05-10T17:26:15.774Z,37.22
2023-05-10T17:28:17.222Z,36.99
2023-05-10T17:30:22.613Z,36.92
2023-05-10T17:32:24.166Z,37.26
2023-05-10T17:34:25.637Z,36.99
2023-05-10T17:36:28.265Z,37.01
2023-05-10T17:38:29.802Z,37.39
2023-05-10T17:40:31.313Z,37.11
2023-05-10T17:42:32.754Z,37.32
2023-05-10T17:44:34.168Z,37.74
2023-05-10T17:46:35.636Z,37.40
2023-05-10T17:48:37.102Z,37.59
2023-05-10T17:50:41.384Z,37.45
2023-05-10T17:52:42.954Z,37.36
2023-05-10T17:54:44.397Z,37.67
2023-05-10T17:56:46.159Z,37.37
2023-05-10T17:58:47.994Z,37.44
2023-05-10T18:00:49.565Z,37.33
2023-05-10T18:02:51.204Z,37.35
2023-05-10T18:04:52.863Z,37.26
2023-05-10T18:07:01.250Z,37.50
2023-05-10T18:09:04.811Z,37.75
2023-05-10T18:11:06.310Z,37.51
2023-05-10T18:13:08.810Z,37.58
2023-05-10T18:15:10.789Z,37.82
2023-05-10T18:17:12.408Z,37.92
2023-05-10T18:19:14.169Z,37.96
2023-05-10T18:21:15.644Z,37.94
2023-05-10T18:23:17.088Z,37.58
2023-05-10T18:25:18.679Z,37.79
2023-05-10T18:27:20.352Z,37.70
2023-05-10T18:29:21.913Z,37.87
2023-05-10T18:31:23.962Z,37.59
2023-05-10T18:33:25.683Z,37.68
2023-05-10T18:35:27.393Z,37.69
2023-05-10T18:37:29.106Z,37.70
2023-05-10T18:39:30.774Z,37.48
2023-05-10T18:41:32.757Z,37.29
2023-05-10T18:43:34.459Z,37.56
2023-05-10T18:45:35.944Z,37.32
2023-05-10T18:47:37.586Z,37.38
2023-05-10T18:49:39.515Z,37.60
2023-05-10T18:51:41.154Z,37.51
2023-05-10T18:53:42.705Z,37.13
2023-05-10T18:55:44.838Z,37.24
2023-05-10T18:57:46.687Z,37.45
2023-05-10T18:59:48.743Z,37.45
2023-05-10T19:01:51.293Z,37.48
2023-05-10T19:03:52.980Z,37.31
2023-05-10T19:05:54.399Z,37.55
2023-05-10T19:07:56.278Z,37.56
2023-05-10T19:09:57.669Z,37.57
2023-05-10T19:11:59.060Z,37.43
2023-05-10T19:14:01.364Z,37.76
2023-05-10T19:16:04.669Z,37.58
2023-05-10T19:18:08.817Z,37.91
2023-05-10T19:20:10.661Z,37.67
2023-05-10T19:22:12.281Z,37.86
2023-05-10T19:24:14.122Z,38.03
2023-05-10T19:26:15.919Z,38.09
2023-05-10T19:28:18.837Z,38.36
2023-05-10T19:30:20.503Z,38.14
2023-05-10T19:32:24.540Z,38.20
2023-05-10T19:34:27.284Z,38.46
2023-05-10T19:36:28.820Z,38.32
2023-05-10T19:38:30.311Z,38.06
2023-05-10T19:40:31.810Z,38.30
2023-05-10T19:42:33.559Z,38.18
2023-05-10T19:44:35.070Z,38.38
2023-05-10T19:46:36.688Z,38.05
2023-05-10T19:48:38.991Z,37.90
2023-05-10T19:50:40.821Z,37.57
2023-05-10T19:52:42.667Z,38.06
2023-05-10T19:54:44.756Z,37.66
2023-05-10T19:56:46.609Z,37.95
2023-05-10T19:58:48.168Z,37.64
2023-05-10T20:00:49.744Z,37.57
2023-05-10T20:02:51.297Z,37.58
2023-05-10T20:04:52.766Z,37.73
2023-05-10T20:06:54.405Z,37.52
2023-05-10T20:08:55.944Z,37.25
2023-05-10T20:10:59.131Z,37.34
2023-05-10T20:13:00.886Z,37.18
2023-05-10T20:15:02.892Z,37.18
2023-05-10T20:17:04.471Z,37.48
2023-05-10T20:19:06.268Z,37.43
2023-05-10T20:21:07.781Z,37.27
2023-05-10T20:23:09.302Z,37.50
2023-05-10T20:25:10.969Z,37.25
2023-05-10T20:27:12.408Z,37.25
2023-05-10T20:29:13.861Z,37.25
2023-05-10T20:31:15.277Z,37.55
2023-05-10T20:33:16.820Z,37.20
2023-05-10T20:35:18.560Z,37.27
2023-05-10T20:37:20.365Z,37.47
2023-05-10T20:39:21.887Z,37.25
2023-05-10T20:41:23.544Z,37.30
2023-05-10T20:43:24.974Z,37.29
2023-05-10T20:45:26.508Z,37.47
2023-05-10T20:47:28.169Z,37.24
2023-05-10T20:49:29.729Z,37.45
2023-05-10T20:51:33.192Z,37.51
2023-05-10T20:53:34.588Z,37.08
2023-05-10T20:55:36.050Z,37.31
2023-05-10T20:57:37.552Z,37.30
2023-05-10T20:59:39.329Z,37.30
2023-05-10T21:01:40.973Z,37.05
2023-05-10T21:03:42.451Z,37.17
2023-05-10T21:05:43.918Z,37.46
2023-05-10T21:07:45.387Z,37.16
2023-05-10T21:09:46.807Z,37.40
2023-05-10T21:11:48.800Z,37.25
2023-05-10T21:13:51.014Z,37.48
2023-05-10T21:15:52.482Z,37.30
2023-05-10T21:17:54.420Z,37.31
2023-05-10T21:19:56.013Z,37.34
2023-05-10T21:21:59.107Z,37.36
2023-05-10T21:24:00.674Z,37.30
2023-05-10T21:26:02.871Z,37.35
2023-05-10T21:28:04.416Z,36.98
2023-05-10T21:30:06.605Z,37.14
2023-05-10T21:32:08.145Z,37.46
2023-05-10T21:34:09.626Z,37.37
2023-05-10T21:36:11.050Z,37.18
2023-05-10T21:38:12.870Z,37.44
2023-05-10T21:40:14.571Z,37.37
2023-05-10T21:42:16.070Z,37.38
2023-05-10T21:44:17.547Z,37.21
2023-05-10T21:46:19.529Z,37.35
2023-05-10T21:48:21.257Z,37.20
2023-05-10T21:50:22.841Z,37.35
2023-05-10T21:52:24.312Z,37.34
2023-05-10T21:54:25.768Z,37.17
2023-05-10T21:56:27.456Z,37.17
2023-05-10T21:58:29.149Z,37.27
2023-05-10T22:00:31.720Z,37.40
2023-05-10T22:02:35.039Z,37.44
2023-05-10T22:04:36.546Z,37.13
2023-05-10T22:06:38.191Z,37.29
2023-05-10T22:08:39.700Z,37.16
2023-05-10T22:10:41.165Z,37.10
2023-05-10T22:12:42.571Z,37.15
2023-05-10T22:14:43.962Z,37.25
2023-05-10T22:16:45.419Z,37.13
2023-05-10T22:18:46.938Z,37.30
2023-05-10T22:20:48.405Z,37.26
2023-05-10T22:22:49.938Z,37.17
2023-05-10T22:24:51.398Z,37.00
2023-05-10T22:26:56.156Z,37.28
2023-05-10T22:28:57.768Z,37.38
2023-05-10T22:30:59.178Z,36.93
2023-05-10T22:33:00.735Z,37.20
2023-05-10T22:35:02.440Z,37.17
2023-05-10T22:37:03.972Z,36.96
2023-05-10T22:39:05.481Z,37.18
2023-05-10T22:41:07.094Z,37.19
2023-05-10T22:43:08.585Z,37.22
2023-05-10T22:45:10.397Z,37.41
2023-05-10T22:47:11.953Z,37.04
2023-05-10T22:49:13.471Z,37.31
2023-05-10T22:51:14.959Z,37.34
2023-05-10T22:53:16.443Z,37.23
2023-05-10T22:55:17.896Z,37.30
2023-05-10T22:57:19.601Z,36.93
2023-05-10T22:59:21.235Z,36.99
2023-05-10T23:01:22.746Z,37.08
2023-05-10T23:03:24.694Z,37.15
2023-05-10T23:05:26.754Z,37.22
2023-05-10T23:07:28.305Z,37.22
2023-05-10T23:09:29.770Z,37.08
2023-05-10T23:11:31.376Z,37.01
2023-05-10T23:13:32.936Z,36.87
2023-05-10T23:15:36.109Z,36.84
2023-05-10T23:17:37.592Z,37.17
2023-05-10T23:19:39.159Z,37.00
2023-05-10T23:21:40.852Z,37.14
2023-05-10T23:23:42.433Z,37.19
2023-05-10T23:25:44.000Z,36.80
2023-05-10T23:27:45.499Z,37.20
2023-05-10T23:29:47.077Z,37.13
2023-05-10T23:31:49.086Z,36.94
2023-05-10T23:33:50.591Z,36.81
2023-05-10T23:35:52.208Z,37.05
2023-05-10T23:37:53.757Z,37.21
2023-05-10T23:39:55.264Z,37.25
2023-05-10T23:41:56.864Z,37.26
2023-05-10T23:43:58.418Z,37.16
2023-05-10T23:45:59.970Z,37.17
2023-05-10T23:48:01.559Z,37.19
2023-05-10T23:50:05.179Z,36.92
2023-05-10T23:52:07.025Z,37.04
2023-05-10T23:54:08.737Z,36.98
2023-05-10T23:56:10.192Z,37.22
2023-05-10T23:58:11.629Z,36.94
